• Join FlightAware (Why Join?)
  • Login
  • US Flag 
Gobble Gobble! 
04:02PM EST


 

Airport Tracker/Info


-or-


 

Live Flight TrackerFlight Track Log ✈ RPA3228 ✈ 12-Jul-2013 ✈ KBNA - KDCA

Flight Track Log - Related Links

Times and Time Zones

All times are in EDT time to prevent confusion due to time zone crossing. See the RPA3228 flight status page for this flight to view local times or setup timezone preferences in your user account.

Time Position Orientation Groundspeed Altitude Reporting Facility
EDT Latitude Longitude Course Direction KTS MPH feet Rate Location/Type
07:45AM 36.1333 -86.6833 64° Northeast 152 175 1,300  Level Nashville TRACON
07:46AM 36.1500 -86.7833 282° West 250 288 4,400 2,760 Climbing Nashville TRACON
07:47AM 36.1833 -86.8667 296° West 292 336 8,300 3,120 Climbing Nashville TRACON
07:48AM 36.1871 -86.1572 80° East  Level FlightAware Approximate
07:48AM 36.2308 -86.8142 42° Northeast 248 285 10,900  Level Memphis Center
07:49AM 36.2136 -86.0328 64° Northeast  Level FlightAware Approximate
07:49AM 36.2253 -86.6933 93° East 209 241 13,300  Level Memphis Center
07:50AM 36.2601 -85.9165 64° Northeast  Level FlightAware Approximate
07:50AM 36.2194 -86.5675 93° East 292 336 15,600  Level Memphis Center
07:51AM 36.2153 -86.4367 92° East 349 402 18,000 2,340 Climbing Memphis Center
07:52AM 36.2089 -86.3031 93° East 377 434 20,300 2,160 Climbing Memphis Center
07:53AM 36.2022 -86.1619 93° East 400 460 22,400 1,860 Climbing Memphis Center
07:55AM 36.2786 -85.8983 70° East 424 488 26,100 1,620 Climbing Indianapolis Center
07:56AM 36.3317 -85.7769 61° Northeast 424 488 27,500 1,380 Climbing Indianapolis Center
07:57AM 36.3931 -85.6472 60° Northeast 432 497 29,000 1,500 Climbing Indianapolis Center
07:58AM 36.4561 -85.5167 59° Northeast 438 504 30,600 960 Climbing Indianapolis Center
07:59AM 36.5161 -85.3867 60° Northeast 434 499 31,000 180 Climbing Indianapolis Center
08:01AM 36.5728 -85.2197 67° East 437 503 31,000  Level Indianapolis Center
08:02AM 36.6178 -85.0800 68° East 433 498 31,000  Level Indianapolis Center
08:03AM 36.6617 -84.9381 69° East 437 503 31,000  Level Indianapolis Center
08:04AM 36.7067 -84.7958 68° East 439 505 31,000  Level Indianapolis Center
08:05AM 36.7503 -84.6525 69° East 441 507 31,000  Level Indianapolis Center
08:06AM 36.8000 -84.4939 69° East 444 511 31,000  Level Indianapolis Center
08:07AM 36.8453 -84.3489 69° East 448 516 31,000  Level Indianapolis Center
08:08AM 36.8894 -84.2022 69° East 451 519 31,000  Level Indianapolis Center
08:09AM 36.9344 -84.0564 69° East 450 518 31,000  Level Indianapolis Center
08:10AM 36.9783 -83.9081 70° East 457 526 31,000  Level Indianapolis Center
08:11AM 37.0250 -83.7608 68° East 458 527 31,000  Level Indianapolis Center
08:12AM 37.0689 -83.6103 70° East 459 528 31,000  Level Indianapolis Center
08:13AM 37.1142 -83.4606 69° East 462 532 31,000  Level Indianapolis Center
08:14AM 37.1594 -83.3089 69° East 466 536 31,000  Level Indianapolis Center
08:15AM 37.2119 -83.1306 70° East 464 534 31,000  Level Indianapolis Center
08:16AM 37.2575 -82.9758 70° East 466 536 31,000  Level Indianapolis Center
08:17AM 37.3025 -82.8194 70° East 471 542 31,000  Level Indianapolis Center
08:18AM 37.3500 -82.6617 69° East 478 550 31,000  Level Indianapolis Center
08:19AM 37.3953 -82.5033 70° East 479 551 31,000  Level Indianapolis Center
08:20AM 37.4406 -82.3425 70° East 484 557 31,000  Level Indianapolis Center
08:21AM 37.4864 -82.1844 70° East 481 554 31,000  Level Indianapolis Center
08:22AM 37.5308 -82.0247 71° East 482 555 31,000  Level Indianapolis Center
08:23AM 37.5761 -81.8639 70° East 485 558 31,000  Level Indianapolis Center
08:24AM 37.6197 -81.7042 71° East 482 555 31,000  Level Indianapolis Center
08:25AM 37.6728 -81.5183 70° East 482 555 31,000  Level Indianapolis Center
08:26AM 37.7125 -81.3703 71° East 480 552 31,000  Level Indianapolis Center
08:27AM 37.7556 -81.2122 71° East 488 562 31,000  Level Indianapolis Center
08:28AM 37.8150 -81.0233 68° East 495 570 31,000  Level Indianapolis Center
08:29AM 37.8681 -80.8772 65° Northeast 502 578 31,000  Level Indianapolis Center
08:30AM 37.9247 -80.7144 66° East 507 583 31,000  Level Indianapolis Center
08:31AM 37.9642 -80.6069 65° Northeast 503 579 31,000  Level Washington Center
08:32AM 38.0300 -80.4267 65° Northeast 503 579 31,000  Level Washington Center
08:33AM 38.0886 -80.2642 65° Northeast 503 579 31,000  Level Washington Center
08:34AM 38.1447 -80.1067 66° East 509 586 31,000 -960 Level Washington Center
08:35AM 38.2006 -79.9464 66° East 499 574 29,100 -1,020 Descending Washington Center
08:36AM 38.2564 -79.7856 66° East 493 567 29,000 -960 Descending Washington Center
08:37AM 38.3072 -79.6456 65° Northeast 493 567 27,300 -1,020 Descending Washington Center
08:38AM 38.3581 -79.4947 67° East 482 555 27,000 -180 Descending Washington Center
08:39AM 38.4086 -79.3436 67° East 470 541 27,000  Level Washington Center
08:40AM 38.4469 -79.1867 73° East 465 535 27,000  Level Washington Center
08:41AM 38.4747 -79.0181 78° East 451 519 27,000 -300 Level Washington Center
08:42AM 38.4978 -78.8628 79° East 446 513 26,400 -1,560 Descending Washington Center
08:43AM 38.5228 -78.7125 78° East 446 513 24,000 -2,040 Descending Washington Center
08:44AM 38.5431 -78.5647 80° East 446 513 22,300 -1,380 Descending Washington Center
08:45AM 38.5675 -78.4197 78° East 426 490 21,300 -1,380 Descending Washington Center
08:46AM 38.5914 -78.2797 78° East 414 476 19,600 -1,740 Descending Washington Center
08:47AM 38.6278 -78.1481 70° East 401 461 17,800 -1,740 Descending Washington Center
08:48AM 38.6700 -78.0219 67° East 388 447 16,100 -1,680 Descending Washington Center
08:49AM 38.7011 -77.9219 68° East 357 411 14,500 -1,680 Descending Washington Center
08:50AM 38.7383 -77.8219 64° Northeast 328 377 12,900 -1,440 Descending Washington Center
08:51AM 38.7942 -77.7411 48° Northeast 305 351 11,700 -1,200 Descending Washington Center
08:52AM 38.8394 -77.6492 58° Northeast 295 339 10,500 -1,320 Descending Washington Center
08:53AM 38.8833 -77.5167 67° East 292 336 8,800 -1,320 Descending Potomac TRACON
08:54AM 38.9000 -77.4333 76° East 280 322 7,600 -1,200 Descending Potomac TRACON
08:55AM 38.8667 -77.3500 117° Southeast 245 282 6,500 -840 Descending Potomac TRACON
08:56AM 38.8333 -77.2833 123° Southeast 191 220 6,000 -300 Descending Potomac TRACON
08:57AM 38.8167 -77.2333 113° Southeast 191 220 6,000  Level Potomac TRACON
08:58AM 38.7833 -77.1667 123° Southeast 194 223 6,000 -60 Level Potomac TRACON
08:59AM 38.7500 -77.1167 131° Southeast 201 231 5,900 -840 Descending Potomac TRACON
09:00AM 38.7000 -77.1167 180° South 207 238 4,500 -1,020 Descending Potomac TRACON
09:01AM 38.6500 -77.1000 165° South 209 241 4,000 -300 Descending Potomac TRACON
09:02AM 38.5833 -77.1000 180° South 211 243 4,000 -420 Level Potomac TRACON
09:03AM 38.5500 -77.0833 159° South 206 237 3,300 -840 Descending Potomac TRACON
09:04AM 38.5667 -77.0333 67° East 157 181 2,500 -480 Descending Potomac TRACON
09:05AM 38.6000 -77.0167 21° North 156 180 2,500  Level Potomac TRACON
09:06AM 38.6500 -77.0167 360° North 161 185 2,500  Level Potomac TRACON
09:07AM 38.6833 -77.0167 360° North 140 161 2,500 -120 Level Potomac TRACON
09:08AM 38.7167 -77.0167 360° North 140 161 2,300 -240 Descending Potomac TRACON